createdAt,value
2018-05-12T00:01:11.225Z,99.90
2018-05-12T00:06:10.192Z,99.90
2018-05-12T00:08:39.109Z,99.90
2018-05-12T00:11:09.551Z,99.90
2018-05-12T00:13:39.236Z,99.90
2018-05-12T00:16:08.142Z,99.90
2018-05-12T00:21:07.870Z,99.90
2018-05-12T00:23:38.286Z,99.90
2018-05-12T00:26:07.981Z,99.90
2018-05-12T00:31:06.957Z,99.90
2018-05-12T00:33:36.667Z,99.90
2018-05-12T00:36:05.599Z,99.90
2018-05-12T00:38:34.511Z,99.90
2018-05-12T00:41:04.205Z,99.90
2018-05-12T00:46:03.166Z,99.90
2018-05-12T00:51:02.116Z,99.90
2018-05-12T00:53:31.413Z,99.90
2018-05-12T00:56:01.114Z,99.90
2018-05-12T00:58:31.198Z,99.90
2018-05-12T01:01:00.495Z,99.90
2018-05-12T01:03:29.425Z,99.90
2018-05-12T01:05:59.835Z,99.90
2018-05-12T01:08:29.529Z,99.90
2018-05-12T01:10:58.457Z,99.90
2018-05-12T01:13:28.147Z,99.90
2018-05-12T01:15:57.082Z,99.90
2018-05-12T01:18:26.761Z,99.90
2018-05-12T01:20:56.457Z,99.90
2018-05-12T01:23:25.749Z,99.90
2018-05-12T01:25:54.679Z,99.90
2018-05-12T01:28:23.581Z,99.90
2018-05-12T01:30:52.489Z,99.90
2018-05-12T01:33:21.413Z,99.90
2018-05-12T01:38:20.420Z,99.90
2018-05-12T01:40:49.751Z,99.90
2018-05-12T01:43:18.674Z,99.90
2018-05-12T01:45:47.631Z,99.90
2018-05-12T01:48:16.953Z,99.90
2018-05-12T01:50:45.879Z,99.90
2018-05-12T01:53:14.797Z,99.90
2018-05-12T01:58:14.531Z,99.90
2018-05-12T02:00:43.828Z,99.90
2018-05-12T02:03:12.746Z,99.90
2018-05-12T02:05:41.670Z,99.90
2018-05-12T02:08:12.119Z,99.90
2018-05-12T02:10:41.107Z,99.90
2018-05-12T02:13:10.785Z,99.90
2018-05-12T02:15:39.686Z,99.90
2018-05-12T02:18:08.604Z,99.90
2018-05-12T02:20:38.279Z,99.90
2018-05-12T02:23:08.689Z,99.90
2018-05-12T02:25:37.631Z,99.90
2018-05-12T02:28:07.311Z,99.90
2018-05-12T02:30:36.234Z,99.90
2018-05-12T02:33:06.293Z,99.90
2018-05-12T02:35:35.233Z,99.90
2018-05-12T02:38:04.932Z,99.90
2018-05-12T02:40:33.834Z,99.90
2018-05-12T02:43:03.531Z,99.90
2018-05-12T02:45:32.423Z,99.90
2018-05-12T02:50:31.406Z,99.90
2018-05-12T02:53:00.323Z,99.90
2018-05-12T02:55:29.991Z,99.90
2018-05-12T02:57:58.919Z,99.90
2018-05-12T03:00:28.604Z,99.90
2018-05-12T03:02:57.527Z,99.90
2018-05-12T03:07:56.522Z,99.90
2018-05-12T03:10:26.947Z,99.90
2018-05-12T03:12:57.369Z,99.90
2018-05-12T03:15:27.081Z,99.90
2018-05-12T03:17:56.078Z,99.90
2018-05-12T03:20:24.971Z,99.90
2018-05-12T03:22:54.773Z,99.90
2018-05-12T03:27:53.733Z,99.90
2018-05-12T03:30:22.637Z,99.90
2018-05-12T03:32:52.342Z,99.90
2018-05-12T03:35:22.427Z,99.90
2018-05-12T03:37:52.859Z,99.90
2018-05-12T03:40:22.151Z,99.90
2018-05-12T03:42:51.108Z,99.90
2018-05-12T03:47:50.834Z,99.90
2018-05-12T03:50:20.518Z,99.90
2018-05-12T03:52:49.442Z,99.90
2018-05-12T03:55:19.546Z,99.90
2018-05-12T03:57:48.542Z,99.90
2018-05-12T04:00:17.547Z,99.90
2018-05-12T04:05:28.468Z,99.90
2018-05-12T04:08:09.071Z,99.90
2018-05-12T04:24:05.411Z,99.90
2018-05-12T04:29:04.378Z,99.90
2018-05-12T04:31:33.300Z,99.90
2018-05-12T04:34:03.349Z,99.90
2018-05-12T04:36:33.049Z,99.90
2018-05-12T04:39:02.710Z,99.90
2018-05-12T04:41:31.640Z,99.90
2018-05-12T04:46:30.626Z,99.90
2018-05-12T04:48:59.513Z,99.90
2018-05-12T04:51:29.206Z,99.90
2018-05-12T04:53:58.160Z,99.90
2018-05-12T04:56:27.830Z,99.90
2018-05-12T04:58:58.301Z,99.90
2018-05-12T05:01:27.616Z,99.90
2018-05-12T05:03:56.645Z,99.90
2018-05-12T05:06:25.631Z,99.90
2018-05-12T05:08:54.512Z,99.90
2018-05-12T05:11:23.453Z,99.90
2018-05-12T05:18:52.449Z,99.90
2018-05-12T05:23:52.570Z,99.90
2018-05-12T05:26:23.000Z,99.90
2018-05-12T05:31:22.344Z,99.90
2018-05-12T05:33:52.510Z,99.90
2018-05-12T05:36:21.341Z,99.90
2018-05-12T05:38:50.267Z,99.90
2018-05-12T05:43:50.361Z,99.90
2018-05-12T05:46:19.291Z,99.90
2018-05-12T05:48:49.039Z,99.90
2018-05-12T05:56:18.067Z,99.90
2018-05-12T05:58:47.736Z,99.90
2018-05-12T06:01:17.421Z,99.90
2018-05-12T06:03:46.355Z,99.90
2018-05-12T06:06:15.271Z,99.90
2018-05-12T06:08:44.569Z,99.90
2018-05-12T06:11:14.269Z,99.90
2018-05-12T06:13:44.318Z,99.90
2018-05-12T06:16:13.244Z,99.90
2018-05-12T06:18:42.575Z,99.90
2018-05-12T06:21:11.887Z,99.90
2018-05-12T06:23:41.582Z,99.90
2018-05-12T06:26:11.261Z,99.90
2018-05-12T06:28:40.635Z,99.90
2018-05-12T06:31:11.483Z,99.90
2018-05-12T06:33:40.408Z,99.90
2018-05-12T06:36:09.315Z,99.90
2018-05-12T06:38:38.651Z,99.90
2018-05-12T06:41:07.562Z,99.90
2018-05-12T06:43:36.490Z,99.90
2018-05-12T06:46:06.160Z,99.90
2018-05-12T06:48:35.483Z,99.90
2018-05-12T06:51:04.895Z,99.90
2018-05-12T06:53:34.208Z,99.90
2018-05-12T06:58:33.223Z,99.90
2018-05-12T07:03:32.208Z,99.90
2018-05-12T07:08:31.233Z,99.90
2018-05-12T07:11:00.555Z,99.90
2018-05-12T07:15:59.539Z,99.90
2018-05-12T07:18:30.648Z,99.90
2018-05-12T07:20:59.542Z,99.90
2018-05-12T07:23:28.551Z,99.90
2018-05-12T07:28:27.739Z,99.90
2018-05-12T07:30:57.542Z,99.90
2018-05-12T07:33:26.557Z,99.90
2018-05-12T07:35:55.480Z,99.90
2018-05-12T07:38:24.390Z,99.90
2018-05-12T07:40:53.334Z,99.90
2018-05-12T07:43:22.277Z,99.90
2018-05-12T07:45:51.959Z,99.90
2018-05-12T07:48:21.781Z,99.90
2018-05-12T07:50:50.736Z,99.90
2018-05-12T07:53:19.744Z,99.90
2018-05-12T07:58:19.092Z,99.90
2018-05-12T08:00:48.251Z,99.90
2018-05-12T08:05:47.677Z,99.90
2018-05-12T08:08:17.581Z,99.90
2018-05-12T08:10:47.279Z,99.90
2018-05-12T08:13:17.608Z,99.90
2018-05-12T08:15:47.446Z,99.90
2018-05-12T08:18:16.415Z,99.90
2018-05-12T08:20:45.509Z,99.90
2018-05-12T08:25:44.591Z,99.90
2018-05-12T08:30:44.458Z,99.90
2018-05-12T08:35:44.057Z,99.90
2018-05-12T08:38:12.992Z,99.90
2018-05-12T08:40:41.995Z,99.90
2018-05-12T08:43:11.806Z,99.90
2018-05-12T08:45:41.768Z,99.90
2018-05-12T08:48:11.115Z,99.90
2018-05-12T08:50:40.809Z,99.90
2018-05-12T08:53:09.738Z,99.90
2018-05-12T08:55:38.665Z,99.90
2018-05-12T08:58:07.572Z,99.90
2018-05-12T09:03:06.656Z,99.90
2018-05-12T09:05:35.570Z,99.90
2018-05-12T09:08:05.268Z,99.90
2018-05-12T09:10:35.175Z,99.90
2018-05-12T09:15:35.715Z,99.90
2018-05-12T09:18:05.790Z,99.90
2018-05-12T09:23:07.002Z,99.90
2018-05-12T09:25:36.920Z,99.90
2018-05-12T09:28:06.577Z,99.90
2018-05-12T09:30:36.266Z,99.90
2018-05-12T09:33:06.116Z,99.90
2018-05-12T09:35:35.324Z,99.90
2018-05-12T09:38:04.421Z,99.90
2018-05-12T09:40:33.357Z,99.90
2018-05-12T09:43:02.654Z,99.90
2018-05-12T09:45:31.634Z,99.90
2018-05-12T09:48:00.528Z,99.90
2018-05-12T09:50:29.646Z,99.90
2018-05-12T09:52:58.615Z,99.90
2018-05-12T09:55:28.642Z,99.90
2018-05-12T09:57:57.606Z,99.90
2018-05-12T10:00:28.206Z,99.90
2018-05-12T10:02:57.410Z,99.90
2018-05-12T10:05:27.120Z,99.90
2018-05-12T10:07:56.113Z,99.90
2018-05-12T10:10:25.015Z,99.90
2018-05-12T10:12:54.878Z,99.90
2018-05-12T10:15:24.177Z,99.90
2018-05-12T10:17:53.207Z,99.90
2018-05-12T10:20:23.258Z,99.90
2018-05-12T10:22:52.360Z,99.90
2018-05-12T10:25:21.537Z,99.90
2018-05-12T10:30:20.618Z,99.90
2018-05-12T10:32:50.724Z,99.90
2018-05-12T10:35:19.626Z,99.90
2018-05-12T10:37:48.941Z,99.90
2018-05-12T10:40:18.670Z,99.90
2018-05-12T10:42:48.705Z,99.90
2018-05-12T10:45:18.403Z,99.90
2018-05-12T10:47:48.828Z,99.90
2018-05-12T10:50:17.747Z,99.90
2018-05-12T10:52:46.771Z,99.90
2018-05-12T10:57:46.883Z,99.90
2018-05-12T11:00:15.807Z,99.90
2018-05-12T11:02:45.485Z,99.70
2018-05-12T11:07:46.257Z,98.70
2018-05-12T11:10:15.152Z,97.60
2018-05-12T11:17:44.209Z,93.90
2018-05-12T11:20:13.156Z,93.70
2018-05-12T11:22:42.059Z,91.40
2018-05-12T11:27:41.069Z,90.90
2018-05-12T11:30:10.383Z,84.40
2018-05-12T11:32:39.307Z,79.90
2018-05-12T11:35:08.213Z,76.50
2018-05-12T11:37:38.295Z,73.70
2018-05-12T11:40:07.214Z,73.50
2018-05-12T11:42:36.118Z,73.80
2018-05-12T11:45:05.929Z,73.30
2018-05-12T11:47:35.975Z,74.50
2018-05-12T11:50:04.917Z,75.20
2018-05-12T11:52:34.945Z,79.70
2018-05-12T11:55:03.869Z,80.30
2018-05-12T11:57:33.563Z,80.10
2018-05-12T12:00:03.270Z,78.10
2018-05-12T12:02:32.252Z,77.70
2018-05-12T12:05:01.471Z,80.30
2018-05-12T12:07:31.183Z,81.00
2018-05-12T12:10:01.287Z,79.60
2018-05-12T12:12:30.981Z,79.10
2018-05-12T12:15:00.301Z,81.00
2018-05-12T12:17:29.971Z,78.60
2018-05-12T12:22:29.009Z,76.10
2018-05-12T12:24:59.415Z,74.10
2018-05-12T12:27:28.332Z,75.90
2018-05-12T12:32:28.095Z,78.50
2018-05-12T12:37:28.692Z,81.00
2018-05-12T12:39:57.606Z,74.30
2018-05-12T12:42:26.514Z,74.10
2018-05-12T12:44:55.494Z,77.60
2018-05-12T12:47:24.363Z,79.20
2018-05-12T12:49:54.064Z,74.50
2018-05-12T12:52:24.508Z,74.40
2018-05-12T12:54:54.173Z,79.10
2018-05-12T12:57:23.489Z,74.80
2018-05-12T12:59:52.418Z,71.70
2018-05-12T13:02:21.377Z,74.30
2018-05-12T13:04:51.138Z,70.00
2018-05-12T13:07:19.975Z,71.60
2018-05-12T13:09:49.698Z,71.80
2018-05-12T13:12:19.029Z,74.10
2018-05-12T13:14:47.977Z,76.70
2018-05-12T13:17:16.871Z,79.10
2018-05-12T13:19:46.561Z,78.70
2018-05-12T13:22:15.473Z,78.90
2018-05-12T13:27:14.445Z,82.20
2018-05-12T13:32:13.417Z,72.50
2018-05-12T13:34:42.345Z,69.60
2018-05-12T13:37:12.076Z,73.20
2018-05-12T13:39:40.988Z,72.50
2018-05-12T13:42:10.284Z,74.20
2018-05-12T13:44:39.221Z,69.50
2018-05-12T13:47:08.143Z,64.10
2018-05-12T13:49:38.247Z,61.60
2018-05-12T13:52:07.164Z,59.50
2018-05-12T13:54:36.861Z,60.50
2018-05-12T13:57:05.794Z,57.20
2018-05-12T13:59:34.700Z,56.80
2018-05-12T14:02:03.732Z,53.70
2018-05-12T14:04:33.384Z,53.00
2018-05-12T14:07:02.341Z,51.70
2018-05-12T14:09:32.042Z,53.30
2018-05-12T14:12:00.945Z,56.90
2018-05-12T14:14:29.865Z,55.10
2018-05-12T14:16:58.800Z,55.50
2018-05-12T14:19:29.065Z,53.90
2018-05-12T14:21:57.984Z,55.10
2018-05-12T14:26:57.040Z,56.20
2018-05-12T14:29:26.714Z,55.50
2018-05-12T14:31:55.657Z,53.00
2018-05-12T14:34:25.337Z,54.00
2018-05-12T14:36:54.741Z,53.60
2018-05-12T14:39:24.783Z,55.20
2018-05-12T14:41:53.710Z,55.10
2018-05-12T14:44:23.383Z,54.40
2018-05-12T14:46:52.310Z,56.90
2018-05-12T14:49:22.349Z,57.60
2018-05-12T14:51:51.278Z,56.80
2018-05-12T14:54:20.979Z,56.70
2018-05-12T14:56:50.318Z,56.70
2018-05-12T14:59:19.237Z,59.50
2018-05-12T15:01:48.456Z,58.50
2018-05-12T15:04:17.761Z,58.80
2018-05-12T15:06:47.455Z,60.20
2018-05-12T15:09:17.171Z,59.80
2018-05-12T15:11:46.479Z,59.20
2018-05-12T15:14:16.532Z,59.70
2018-05-12T15:16:46.811Z,59.00
2018-05-12T15:19:16.485Z,58.40
2018-05-12T15:21:46.556Z,58.90
2018-05-12T15:24:15.461Z,61.20
2018-05-12T15:26:45.530Z,62.30
2018-05-12T15:31:44.495Z,59.40
2018-05-12T15:36:43.477Z,58.40
2018-05-12T15:39:12.808Z,57.70
2018-05-12T15:54:12.121Z,61.90
2018-05-12T15:56:41.445Z,61.50
2018-05-12T16:01:41.944Z,66.50
2018-05-12T16:04:10.861Z,65.90
2018-05-12T16:06:39.815Z,65.30
2018-05-12T16:09:09.565Z,66.00
2018-05-12T16:11:39.272Z,67.00
2018-05-12T16:16:38.245Z,66.90
2018-05-12T16:21:37.247Z,67.80
2018-05-12T16:26:36.232Z,68.10
2018-05-12T16:29:05.928Z,67.20
2018-05-12T16:36:34.952Z,69.60
2018-05-12T16:39:04.657Z,70.50
2018-05-12T16:46:35.204Z,70.60
2018-05-12T16:49:04.511Z,68.50
2018-05-12T16:51:33.424Z,68.50
2018-05-12T16:54:02.349Z,69.80
2018-05-12T16:56:31.275Z,71.30
2018-05-12T16:59:00.288Z,68.30
2018-05-12T17:01:29.106Z,69.70
2018-05-12T17:03:58.819Z,70.00
2018-05-12T17:06:28.571Z,69.50
2018-05-12T17:08:57.444Z,70.90
2018-05-12T17:11:27.893Z,70.70
2018-05-12T17:13:57.574Z,71.10
2018-05-12T17:16:27.986Z,70.00
2018-05-12T17:18:58.444Z,69.30
2018-05-12T17:21:28.852Z,68.60
2018-05-12T17:23:58.559Z,71.50
2018-05-12T17:26:28.601Z,69.40
2018-05-12T17:31:27.584Z,68.10
2018-05-12T17:33:57.644Z,70.30
2018-05-12T17:36:26.542Z,69.00
2018-05-12T17:38:55.464Z,69.00
2018-05-12T17:41:25.145Z,70.80
2018-05-12T17:46:24.887Z,69.50
2018-05-12T17:48:53.834Z,71.90
2018-05-12T17:51:22.805Z,69.20
2018-05-12T18:01:21.878Z,73.50
2018-05-12T18:03:51.691Z,74.60
2018-05-12T18:06:21.767Z,72.80
2018-05-12T18:08:51.095Z,73.60
2018-05-12T18:11:20.011Z,72.50
2018-05-12T18:16:19.781Z,74.00
2018-05-12T18:21:18.737Z,73.60
2018-05-12T18:23:48.494Z,75.50
2018-05-12T18:26:18.196Z,77.00
2018-05-12T18:28:47.513Z,76.70
2018-05-12T18:31:17.933Z,76.40
2018-05-12T18:33:48.338Z,76.40
2018-05-12T18:36:18.042Z,77.40
2018-05-12T18:41:18.269Z,77.10
2018-05-12T18:43:47.209Z,78.90
2018-05-12T18:46:17.235Z,76.90
2018-05-12T18:51:17.959Z,79.20
2018-05-12T18:56:16.966Z,80.50
2018-05-12T19:01:16.694Z,79.60
2018-05-12T19:03:46.422Z,82.20
2018-05-12T19:06:16.472Z,81.60
2018-05-12T19:08:45.433Z,81.50
2018-05-12T19:11:14.378Z,82.90
2018-05-12T19:13:44.471Z,84.00
2018-05-12T19:16:13.401Z,84.30
2018-05-12T19:21:13.500Z,86.40
2018-05-12T19:23:42.418Z,88.50
2018-05-12T19:26:12.124Z,89.60
2018-05-12T19:28:41.030Z,87.60
2018-05-12T19:33:40.034Z,87.80
2018-05-12T19:36:10.515Z,87.70
2018-05-12T19:38:39.864Z,88.10
2018-05-12T19:41:08.806Z,88.10
2018-05-12T19:46:08.554Z,89.00
2018-05-12T19:48:37.463Z,88.80
2018-05-12T19:51:07.552Z,89.10
2018-05-12T19:53:36.484Z,89.80
2018-05-12T19:56:06.544Z,90.00
2018-05-12T19:58:35.884Z,90.30
2018-05-12T20:01:04.813Z,90.40
2018-05-12T20:06:05.322Z,91.50
2018-05-12T20:11:04.312Z,91.60
2018-05-12T20:13:34.445Z,91.70
2018-05-12T20:16:04.193Z,92.30
2018-05-12T20:18:33.846Z,92.40
2018-05-12T20:21:02.776Z,92.50
2018-05-12T20:23:32.870Z,92.90
2018-05-12T20:26:01.776Z,92.60
2018-05-12T20:28:31.837Z,92.70
2018-05-12T20:31:00.790Z,93.60
2018-05-12T20:33:29.696Z,93.70
2018-05-12T20:35:59.036Z,94.00
2018-05-12T20:38:29.090Z,94.10
2018-05-12T20:40:59.176Z,94.70
2018-05-12T20:45:59.308Z,95.30
2018-05-12T20:48:28.242Z,95.30
2018-05-12T20:50:57.158Z,96.00
2018-05-12T20:53:26.094Z,96.60
2018-05-12T20:55:55.772Z,96.80
2018-05-12T20:58:24.716Z,96.40
2018-05-12T21:00:53.636Z,96.70
2018-05-12T21:03:23.694Z,96.90
2018-05-12T21:05:53.000Z,97.30
2018-05-12T21:08:23.528Z,97.70
2018-05-12T21:10:53.189Z,98.80
2018-05-12T21:20:52.686Z,99.10
2018-05-12T21:23:22.379Z,99.60
2018-05-12T21:25:51.713Z,99.30
2018-05-12T21:30:50.699Z,99.90
2018-05-12T21:33:20.398Z,99.90
2018-05-12T21:35:49.302Z,99.90
2018-05-12T21:38:18.996Z,99.90
2018-05-12T21:40:47.919Z,99.90
2018-05-12T21:43:16.843Z,99.90
2018-05-12T21:45:45.751Z,99.90
2018-05-12T21:48:14.687Z,99.90
2018-05-12T21:50:43.620Z,99.90
2018-05-12T21:53:13.696Z,99.90
2018-05-12T21:55:43.757Z,99.90
2018-05-12T21:58:12.672Z,99.90
2018-05-12T22:00:42.726Z,99.90
2018-05-12T22:03:11.680Z,99.90
2018-05-12T22:05:40.621Z,99.90
2018-05-12T22:08:09.648Z,99.90
2018-05-12T22:13:09.339Z,99.90
2018-05-12T22:15:38.252Z,99.90
2018-05-12T22:18:07.191Z,99.90
2018-05-12T22:20:37.620Z,99.90
2018-05-12T22:23:07.690Z,99.90
2018-05-12T22:25:36.994Z,99.90
2018-05-12T22:28:05.910Z,99.90
2018-05-12T22:30:35.654Z,99.90
2018-05-12T22:33:04.536Z,99.90
2018-05-12T22:35:34.590Z,99.90
2018-05-12T22:38:04.660Z,99.90
2018-05-12T22:40:34.701Z,99.90
2018-05-12T22:43:04.448Z,99.90
2018-05-12T22:48:04.148Z,99.90
2018-05-12T22:50:33.075Z,99.90
2018-05-12T22:53:03.660Z,99.90
2018-05-12T22:55:32.586Z,99.90
2018-05-12T22:58:01.504Z,99.90
2018-05-12T23:00:31.196Z,99.90
2018-05-12T23:03:00.870Z,99.90
2018-05-12T23:05:30.184Z,99.90
2018-05-12T23:07:59.200Z,99.90
2018-05-12T23:10:28.116Z,99.90
2018-05-12T23:15:27.192Z,99.90
2018-05-12T23:17:56.038Z,99.90
2018-05-12T23:20:24.955Z,99.90
2018-05-12T23:22:54.259Z,99.90
2018-05-12T23:25:23.190Z,99.90
2018-05-12T23:27:53.228Z,99.90
2018-05-12T23:30:22.164Z,99.90
2018-05-12T23:32:51.065Z,99.90
2018-05-12T23:35:20.780Z,99.90
2018-05-12T23:37:50.448Z,99.90
2018-05-12T23:40:20.140Z,99.90
2018-05-12T23:42:49.076Z,99.90
2018-05-12T23:47:48.032Z,99.90
2018-05-12T23:50:18.095Z,99.90
2018-05-12T23:52:47.399Z,99.90
2018-05-12T23:55:16.731Z,99.90
2018-05-12T23:57:47.167Z,99.90
